createdAt,value
2024-01-06T00:01:28.831Z,91190.16
2024-01-06T00:03:58.044Z,91187.84
2024-01-06T00:06:28.281Z,91187.84
2024-01-06T00:08:57.031Z,91189.75
2024-01-06T00:11:26.100Z,91191.28
2024-01-06T00:13:54.664Z,91187.88
2024-01-06T00:16:24.747Z,91196.63
2024-01-06T00:18:55.222Z,91194.31
2024-01-06T00:21:23.787Z,91200.81
2024-01-06T00:23:53.656Z,91203.50
2024-01-06T00:26:22.106Z,91214.53
2024-01-06T00:28:50.999Z,91206.91
2024-01-06T00:31:20.832Z,91209.19
2024-01-06T00:33:49.729Z,91216.81
2024-01-06T00:36:18.388Z,91211.09
2024-01-06T00:38:46.866Z,91212.22
2024-01-06T00:41:16.838Z,91218.34
2024-01-06T00:43:45.409Z,91215.25
2024-01-06T00:46:13.921Z,91217.63
2024-01-06T00:48:42.538Z,91216.03
2024-01-06T00:51:11.193Z,91224.03
2024-01-06T00:53:39.741Z,91230.91
2024-01-06T00:56:08.321Z,91232.78
2024-01-06T00:58:39.137Z,91228.97
2024-01-06T01:01:07.984Z,91229.75
2024-01-06T01:03:36.653Z,91239.72
2024-01-06T01:06:06.275Z,91240.44
2024-01-06T01:08:34.819Z,91241.19
2024-01-06T01:11:03.340Z,91247.66
2024-01-06T01:13:31.888Z,91248.75
2024-01-06T01:16:02.008Z,91247.25
2024-01-06T01:18:30.681Z,91259.44
2024-01-06T01:20:59.421Z,91260.22
2024-01-06T01:23:27.895Z,91268.66
2024-01-06T01:25:57.322Z,91278.56
2024-01-06T01:28:25.803Z,91269.09
2024-01-06T01:30:54.396Z,91274.78
2024-01-06T01:33:25.509Z,91272.06
2024-01-06T01:35:54.247Z,91280.13
2024-01-06T01:38:22.710Z,91280.88
2024-01-06T01:40:51.187Z,91277.06
2024-01-06T01:43:20.464Z,91280.88
2024-01-06T01:45:53.810Z,91286.16
2024-01-06T01:48:25.315Z,91285.75
2024-01-06T01:50:55.637Z,91293.38
2024-01-06T01:53:27.298Z,91288.88
2024-01-06T01:55:57.142Z,91299.91
2024-01-06T01:58:25.747Z,91296.50
2024-01-06T02:00:55.084Z,91293.03
2024-01-06T02:03:27.051Z,91287.66
2024-01-06T02:05:55.828Z,91296.50
2024-01-06T02:08:24.650Z,91289.25
2024-01-06T02:10:54.011Z,91296.09
2024-01-06T02:13:22.537Z,91295.34
2024-01-06T02:15:51.533Z,91296.13
2024-01-06T02:18:20.160Z,91298.38
2024-01-06T02:20:52.506Z,91296.50
2024-01-06T02:23:22.373Z,91292.28
2024-01-06T02:25:51.704Z,91287.28
2024-01-06T02:28:20.210Z,91293.06
2024-01-06T02:30:49.035Z,91298.38
2024-01-06T02:33:18.302Z,91297.63
2024-01-06T02:36:06.043Z,91299.97
2024-01-06T02:38:54.571Z,91294.22
2024-01-06T02:41:42.203Z,91293.78
2024-01-06T02:44:29.012Z,91294.16
2024-01-06T02:47:16.296Z,91302.19
2024-01-06T02:50:03.432Z,91302.56
2024-01-06T02:52:50.490Z,91308.25
2024-01-06T02:55:38.935Z,91287.66
2024-01-06T02:58:25.849Z,91295.28
2024-01-06T03:01:15.120Z,91296.47
2024-01-06T03:04:02.562Z,91296.84
2024-01-06T03:06:53.663Z,91297.22
2024-01-06T03:09:41.077Z,91297.59
2024-01-06T03:12:29.598Z,91292.25
2024-01-06T03:15:17.313Z,91298.31
2024-01-06T03:18:04.607Z,91302.91
2024-01-06T03:20:51.769Z,91297.56
2024-01-06T03:23:38.867Z,91306.72
2024-01-06T03:26:26.039Z,91306.75
2024-01-06T03:29:14.408Z,91302.88
2024-01-06T03:32:01.238Z,91302.41
2024-01-06T03:34:48.522Z,91307.47
2024-01-06T03:37:35.714Z,91306.31
2024-01-06T03:40:22.843Z,91297.94
2024-01-06T03:43:09.836Z,91298.69
2024-01-06T03:45:59.111Z,91294.09
2024-01-06T03:48:46.336Z,91292.25
2024-01-06T03:51:15.385Z,91297.56
2024-01-06T03:53:44.082Z,91299.78
2024-01-06T03:56:12.556Z,91309.66
2024-01-06T03:58:41.087Z,91299.06
2024-01-06T04:01:11.094Z,91300.19
2024-01-06T04:03:42.491Z,91299.78
2024-01-06T04:06:11.660Z,91302.13
2024-01-06T04:08:41.729Z,91309.34
2024-01-06T04:11:10.196Z,91307.47
2024-01-06T04:13:38.685Z,91312.03
2024-01-06T04:16:08.051Z,91310.09
2024-01-06T04:18:38.027Z,91311.94
2024-01-06T04:21:06.975Z,91314.59
2024-01-06T04:23:35.729Z,91302.09
2024-01-06T04:26:05.738Z,91307.38
2024-01-06T04:28:34.387Z,91302.81
2024-01-06T04:31:03.012Z,91307.44
2024-01-06T04:33:32.698Z,91303.19
2024-01-06T04:36:03.050Z,91311.28
2024-01-06T04:38:31.775Z,91312.44
2024-01-06T04:41:00.317Z,91314.69
2024-01-06T04:45:58.653Z,91307.47
2024-01-06T04:48:27.415Z,91305.44
2024-01-06T04:50:56.118Z,91310.34
2024-01-06T04:53:25.987Z,91311.53
2024-01-06T04:55:54.476Z,91313.50
2024-01-06T04:58:22.961Z,91313.97
2024-01-06T05:00:53.582Z,91317.38
2024-01-06T05:03:22.270Z,91320.84
2024-01-06T05:05:51.060Z,91314.25
2024-01-06T05:08:19.669Z,91320.97
2024-01-06T05:10:50.275Z,91327.78
2024-01-06T05:13:19.383Z,91330.16
2024-01-06T05:15:48.034Z,91327.94
2024-01-06T05:18:16.761Z,91324.19
2024-01-06T05:20:45.295Z,91323.84
2024-01-06T05:23:13.853Z,91326.00
2024-01-06T05:25:42.345Z,91335.69
2024-01-06T05:28:12.382Z,91334.41
2024-01-06T05:30:40.950Z,91337.84
2024-01-06T05:33:15.200Z,91339.41
2024-01-06T05:35:44.213Z,91346.19
2024-01-06T05:38:13.003Z,91343.22
2024-01-06T05:40:41.488Z,91347.00
2024-01-06T05:43:11.328Z,91358.91
2024-01-06T05:45:43.227Z,91354.38
2024-01-06T05:48:12.344Z,91366.69
2024-01-06T05:50:42.016Z,91367.53
2024-01-06T05:53:11.805Z,91363.78
2024-01-06T05:55:41.091Z,91366.94
2024-01-06T05:58:10.998Z,91356.22
2024-01-06T06:00:39.986Z,91359.19
2024-01-06T06:03:09.015Z,91368.69
2024-01-06T06:05:37.926Z,91365.31
2024-01-06T06:08:07.168Z,91371.81
2024-01-06T06:10:52.941Z,91379.72
2024-01-06T06:13:22.913Z,91375.31
2024-01-06T06:15:52.005Z,91379.47
2024-01-06T06:18:20.671Z,91386.44
2024-01-06T06:20:49.356Z,91388.69
2024-01-06T06:23:17.880Z,91392.59
2024-01-06T06:25:46.335Z,91389.66
2024-01-06T06:28:14.884Z,91398.41
2024-01-06T06:30:45.430Z,91402.72
2024-01-06T06:33:14.171Z,91409.25
2024-01-06T06:35:42.793Z,91413.81
2024-01-06T06:38:11.288Z,91412.03
2024-01-06T06:40:39.954Z,91410.28
2024-01-06T06:43:09.644Z,91411.06
2024-01-06T06:45:38.211Z,91418.63
2024-01-06T06:48:09.392Z,91417.09
2024-01-06T06:50:37.994Z,91419.28
2024-01-06T06:53:06.577Z,91420.75
2024-01-06T06:55:35.064Z,91425.69
2024-01-06T06:58:03.788Z,91424.94
2024-01-06T07:00:32.418Z,91418.50
2024-01-06T07:03:01.478Z,91424.50
2024-01-06T07:05:31.584Z,91429.78
2024-01-06T07:08:02.657Z,91426.75
2024-01-06T07:10:31.349Z,91427.50
2024-01-06T07:12:59.820Z,91426.81
2024-01-06T07:15:29.162Z,91426.03
2024-01-06T07:17:58.004Z,91430.16
2024-01-06T07:20:26.523Z,91428.81
2024-01-06T07:22:56.367Z,91425.78
2024-01-06T07:25:24.823Z,91427.94
2024-01-06T07:27:55.505Z,91431.84
2024-01-06T07:30:24.425Z,91433.00
2024-01-06T07:32:53.498Z,91435.16
2024-01-06T07:35:22.295Z,91438.19
2024-01-06T07:37:50.840Z,91440.50
2024-01-06T07:40:20.836Z,91445.44
2024-01-06T07:42:49.359Z,91443.22
2024-01-06T07:45:18.038Z,91442.78
2024-01-06T07:47:46.635Z,91445.88
2024-01-06T07:50:15.277Z,91442.84
2024-01-06T07:52:43.767Z,91445.84
2024-01-06T07:55:12.259Z,91444.41
2024-01-06T07:57:42.132Z,91448.13
2024-01-06T08:00:15.778Z,91461.09
2024-01-06T08:02:44.367Z,91453.25
2024-01-06T08:05:13.059Z,91458.19
2024-01-06T08:07:41.888Z,91455.56
2024-01-06T08:10:11.367Z,91454.72
2024-01-06T08:12:41.290Z,91456.00
2024-01-06T08:15:10.870Z,91456.63
2024-01-06T08:17:41.974Z,91452.91
2024-01-06T08:20:13.169Z,91458.97
2024-01-06T08:22:41.788Z,91454.84
2024-01-06T08:25:10.640Z,91459.16
2024-01-06T08:27:39.207Z,91459.50
2024-01-06T08:30:11.286Z,91470.53
2024-01-06T08:32:39.929Z,91472.09
2024-01-06T08:35:10.025Z,91473.53
2024-01-06T08:37:38.609Z,91479.00
2024-01-06T08:40:09.769Z,91481.28
2024-01-06T08:42:38.810Z,91488.94
2024-01-06T08:45:09.621Z,91479.44
2024-01-06T08:47:38.533Z,91482.22
2024-01-06T08:50:09.201Z,91482.00
2024-01-06T08:52:37.845Z,91480.53
2024-01-06T08:55:07.820Z,91480.63
2024-01-06T08:57:36.625Z,91489.03
2024-01-06T09:00:07.029Z,91491.69
2024-01-06T09:02:36.897Z,91483.97
2024-01-06T09:05:06.068Z,91484.75
2024-01-06T09:07:34.792Z,91487.91
2024-01-06T09:10:03.412Z,91491.78
2024-01-06T09:12:32.025Z,91493.28
2024-01-06T09:15:00.561Z,91496.31
2024-01-06T09:17:29.152Z,91498.22
2024-01-06T09:19:59.702Z,91498.88
2024-01-06T09:22:28.436Z,91498.19
2024-01-06T09:24:57.322Z,91489.69
2024-01-06T09:27:26.142Z,91501.16
2024-01-06T09:29:54.645Z,91500.53
2024-01-06T09:32:24.369Z,91496.34
2024-01-06T09:34:53.071Z,91499.81
2024-01-06T09:37:23.194Z,91497.16
2024-01-06T09:39:52.116Z,91503.28
2024-01-06T09:42:21.223Z,91501.38
2024-01-06T09:44:49.759Z,91512.47
2024-01-06T09:47:21.747Z,91518.34
2024-01-06T09:49:52.579Z,91520.38
2024-01-06T09:52:25.240Z,91517.34
2024-01-06T09:54:57.002Z,91522.25
2024-01-06T09:57:26.759Z,91526.50
2024-01-06T09:59:55.620Z,91521.53
2024-01-06T10:02:25.767Z,91522.75
2024-01-06T10:04:54.452Z,91516.63
2024-01-06T10:07:24.359Z,91523.81
2024-01-06T10:09:53.131Z,91515.38
2024-01-06T10:12:26.141Z,91517.81
2024-01-06T10:14:56.147Z,91524.25
2024-01-06T10:17:25.216Z,91525.00
2024-01-06T10:19:55.096Z,91517.22
2024-01-06T10:22:25.250Z,91515.84
2024-01-06T10:24:53.775Z,91523.53
2024-01-06T10:27:22.944Z,91510.41
2024-01-06T10:29:52.285Z,91514.97
2024-01-06T10:32:20.781Z,91516.63
2024-01-06T10:34:49.589Z,91518.91
2024-01-06T10:37:19.939Z,91513.16
2024-01-06T10:39:49.788Z,91510.97
2024-01-06T10:42:19.251Z,91512.09
2024-01-06T10:44:49.396Z,91516.22
2024-01-06T10:47:21.287Z,91516.13
2024-01-06T10:49:54.704Z,91508.19
2024-01-06T10:52:27.581Z,91509.34
2024-01-06T10:54:58.457Z,91516.53
2024-01-06T10:57:27.066Z,91505.91
2024-01-06T10:59:55.590Z,91519.69
2024-01-06T11:02:26.457Z,91513.63
2024-01-06T11:04:55.463Z,91507.41
2024-01-06T11:07:27.201Z,91507.09
2024-01-06T11:10:07.153Z,91508.66
2024-01-06T11:12:35.790Z,91511.25
2024-01-06T11:15:05.517Z,91506.00
2024-01-06T11:17:57.314Z,91501.63
2024-01-06T11:20:28.105Z,91497.94
2024-01-06T11:22:57.442Z,91505.88
2024-01-06T11:25:29.211Z,91500.59
2024-01-06T11:27:58.617Z,91493.78
2024-01-06T11:30:29.861Z,91500.19
2024-01-06T11:33:00.442Z,91496.00
2024-01-06T11:35:30.173Z,91496.03
2024-01-06T11:38:01.090Z,91495.63
2024-01-06T11:40:37.498Z,91491.44
2024-01-06T11:43:08.692Z,91497.53
2024-01-06T11:45:38.733Z,91488.03
2024-01-06T11:48:09.644Z,91501.38
2024-01-06T11:50:40.219Z,91492.69
2024-01-06T11:53:11.338Z,91496.00
2024-01-06T11:55:44.008Z,91483.34
2024-01-06T11:58:12.742Z,91487.59
2024-01-06T12:00:42.549Z,91491.47
2024-01-06T12:03:12.274Z,91492.91
2024-01-06T12:05:40.822Z,91491.50
2024-01-06T12:08:09.673Z,91482.78
2024-01-06T12:10:39.119Z,91484.53
2024-01-06T12:13:11.808Z,91487.66
2024-01-06T12:15:41.892Z,91489.38
2024-01-06T12:18:12.393Z,91486.16
2024-01-06T12:20:40.934Z,91489.44
2024-01-06T12:23:09.399Z,91487.22
2024-01-06T12:25:40.843Z,91481.47
2024-01-06T12:28:11.145Z,91478.38
2024-01-06T12:30:41.884Z,91476.13
2024-01-06T12:33:11.398Z,91472.34
2024-01-06T12:35:40.320Z,91467.91
2024-01-06T12:38:10.840Z,91470.59
2024-01-06T12:40:40.121Z,91461.38
2024-01-06T12:43:10.187Z,91460.97
2024-01-06T12:45:38.725Z,91466.28
2024-01-06T12:48:08.691Z,91472.34
2024-01-06T12:50:37.204Z,91471.63
2024-01-06T12:53:06.104Z,91469.22
2024-01-06T12:55:34.572Z,91473.00
2024-01-06T12:58:05.455Z,91469.31
2024-01-06T13:00:37.042Z,91475.78
2024-01-06T13:03:07.350Z,91471.50
2024-01-06T13:05:36.153Z,91472.94
2024-01-06T13:08:05.364Z,91471.50
2024-01-06T13:10:35.620Z,91476.69
2024-01-06T13:13:04.556Z,91473.75
2024-01-06T13:15:34.603Z,91473.81
2024-01-06T13:18:03.216Z,91457.59
2024-01-06T13:20:31.719Z,91474.81
2024-01-06T13:23:00.592Z,91474.81
2024-01-06T13:25:29.348Z,91477.16
2024-01-06T13:27:57.955Z,91481.38
2024-01-06T13:30:27.452Z,91486.00
2024-01-06T13:32:57.545Z,91487.38
2024-01-06T13:35:26.459Z,91497.38
2024-01-06T13:37:56.945Z,91500.06
2024-01-06T13:40:26.317Z,91499.78
2024-01-06T13:42:55.496Z,91500.53
2024-01-06T13:45:24.153Z,91487.50
2024-01-06T13:47:53.322Z,91497.13
2024-01-06T13:50:23.346Z,91501.97
2024-01-06T13:52:51.882Z,91503.22
2024-01-06T13:55:20.638Z,91499.41
2024-01-06T13:57:49.173Z,91496.78
2024-01-06T14:00:21.155Z,91499.34
2024-01-06T14:02:50.224Z,91499.75
2024-01-06T14:05:21.037Z,91504.69
2024-01-06T14:07:52.124Z,91510.84
2024-01-06T14:10:21.698Z,91500.56
2024-01-06T14:12:50.756Z,91500.91
2024-01-06T14:15:20.174Z,91504.75
2024-01-06T14:17:51.175Z,91496.00
2024-01-06T14:20:20.072Z,91504.38
2024-01-06T14:22:50.609Z,91501.53
2024-01-06T14:25:20.044Z,91510.78
2024-01-06T14:27:49.364Z,91507.66
2024-01-06T14:30:18.232Z,91516.47
2024-01-06T14:32:46.907Z,91509.88
2024-01-06T14:35:17.473Z,91507.59
2024-01-06T14:37:46.900Z,91514.88
2024-01-06T14:40:16.828Z,91511.03
2024-01-06T14:42:45.813Z,91514.97
2024-01-06T14:45:15.673Z,91514.69
2024-01-06T14:47:44.358Z,91518.72
2024-01-06T14:50:13.102Z,91518.03
2024-01-06T14:52:41.585Z,91521.56
2024-01-06T14:55:11.774Z,91533.00
2024-01-06T14:57:42.184Z,91528.28
2024-01-06T15:00:12.332Z,91525.19
2024-01-06T15:02:40.987Z,91529.31
2024-01-06T15:05:10.889Z,91534.53
2024-01-06T15:07:40.006Z,91533.47
2024-01-06T15:10:11.097Z,91537.34
2024-01-06T15:12:41.339Z,91540.06
2024-01-06T15:15:10.744Z,91548.44
2024-01-06T15:17:39.236Z,91540.41
2024-01-06T15:20:11.340Z,91539.28
2024-01-06T15:22:41.320Z,91540.97
2024-01-06T15:25:11.537Z,91547.59
2024-01-06T15:27:41.785Z,91538.28
2024-01-06T15:30:11.228Z,91548.50
2024-01-06T15:32:40.740Z,91543.69
2024-01-06T15:35:11.342Z,91543.63
2024-01-06T15:37:39.905Z,91540.69
2024-01-06T15:40:10.916Z,91542.25
2024-01-06T15:42:41.934Z,91542.56
2024-01-06T15:45:12.829Z,91549.88
2024-01-06T15:47:41.367Z,91549.13
2024-01-06T15:50:10.050Z,91546.75
2024-01-06T15:52:39.459Z,91547.09
2024-01-06T15:55:09.095Z,91548.91
2024-01-06T15:57:38.620Z,91552.47
2024-01-06T16:00:11.509Z,91554.00
2024-01-06T16:02:40.601Z,91554.00
2024-01-06T16:05:10.588Z,91555.09
2024-01-06T16:07:39.259Z,91564.34
2024-01-06T16:10:09.341Z,91561.03
2024-01-06T16:12:42.638Z,91548.22
2024-01-06T16:15:13.558Z,91560.03
2024-01-06T16:17:42.179Z,91562.41
2024-01-06T16:20:11.725Z,91552.88
2024-01-06T16:22:40.277Z,91557.50
2024-01-06T16:25:10.158Z,91560.53
2024-01-06T16:27:38.739Z,91557.41
2024-01-06T16:30:09.409Z,91561.19
2024-01-06T16:32:39.368Z,91569.69
2024-01-06T16:35:09.192Z,91564.16
2024-01-06T16:37:37.985Z,91564.75
2024-01-06T16:40:11.529Z,91568.34
2024-01-06T16:42:40.639Z,91563.94
2024-01-06T16:45:10.281Z,91577.44
2024-01-06T16:47:41.310Z,91571.97
2024-01-06T16:50:10.887Z,91576.50
2024-01-06T16:52:40.400Z,91573.75
2024-01-06T16:55:10.459Z,91582.13
2024-01-06T16:57:39.039Z,91575.41
2024-01-06T17:00:11.141Z,91576.94
2024-01-06T17:02:41.090Z,91580.59
2024-01-06T17:05:10.644Z,91577.75
2024-01-06T17:07:42.227Z,91589.75
2024-01-06T17:10:12.103Z,91586.53
2024-01-06T17:12:41.122Z,91582.22
2024-01-06T17:15:11.089Z,91586.00
2024-01-06T17:17:42.631Z,91588.38
2024-01-06T17:20:12.897Z,91583.84
2024-01-06T17:22:43.349Z,91592.22
2024-01-06T17:25:16.055Z,91585.75
2024-01-06T17:27:46.820Z,91592.84
2024-01-06T17:30:17.208Z,91591.56
2024-01-06T17:32:47.426Z,91598.41
2024-01-06T17:35:15.958Z,91594.84
2024-01-06T17:37:44.490Z,91598.25
2024-01-06T17:40:15.045Z,91591.84
2024-01-06T17:42:43.844Z,91595.56
2024-01-06T17:45:12.798Z,91599.16
2024-01-06T17:47:44.355Z,91599.81
2024-01-06T17:50:14.516Z,91605.50
2024-01-06T17:52:43.044Z,91603.59
2024-01-06T17:55:12.026Z,91608.44
2024-01-06T17:57:40.541Z,91601.69
2024-01-06T18:00:10.567Z,91608.31
2024-01-06T18:02:39.638Z,91614.22
2024-01-06T18:05:09.419Z,91606.94
2024-01-06T18:07:39.578Z,91606.47
2024-01-06T18:10:10.377Z,91605.00
2024-01-06T18:12:40.358Z,91612.72
2024-01-06T18:15:09.470Z,91615.41
2024-01-06T18:17:39.633Z,91608.94
2024-01-06T18:20:10.229Z,91603.44
2024-01-06T18:22:40.360Z,91612.78
2024-01-06T18:25:10.154Z,91615.28
2024-01-06T18:27:38.654Z,91613.78
2024-01-06T18:30:09.118Z,91608.13
2024-01-06T18:32:37.599Z,91609.69
2024-01-06T18:35:08.234Z,91606.25
2024-01-06T18:37:37.089Z,91611.63
2024-01-06T18:40:08.542Z,91615.03
2024-01-06T18:42:37.046Z,91614.34
2024-01-06T18:45:06.437Z,91613.25
2024-01-06T18:47:35.036Z,91618.09
2024-01-06T18:50:04.793Z,91619.31
2024-01-06T18:52:34.338Z,91621.22
2024-01-06T18:55:03.963Z,91617.38
2024-01-06T18:57:34.479Z,91618.09
2024-01-06T19:00:03.005Z,91618.94
2024-01-06T19:02:31.760Z,91612.28
2024-01-06T19:05:00.298Z,91614.59
2024-01-06T19:07:30.221Z,91617.53
2024-01-06T19:09:58.737Z,91614.47
2024-01-06T19:12:27.285Z,91615.59
2024-01-06T19:14:57.133Z,91620.94
2024-01-06T19:17:28.426Z,91620.59
2024-01-06T19:19:57.240Z,91617.81
2024-01-06T19:22:25.752Z,91619.16
2024-01-06T19:24:55.679Z,91617.09
2024-01-06T19:27:24.403Z,91616.47
2024-01-06T19:29:54.221Z,91615.53
2024-01-06T19:32:24.148Z,91624.34
2024-01-06T19:34:55.493Z,91617.19
2024-01-06T19:37:24.413Z,91616.84
2024-01-06T19:39:52.952Z,91619.47
2024-01-06T19:42:21.488Z,91621.34
2024-01-06T19:44:50.043Z,91614.72
2024-01-06T19:47:19.388Z,91615.88
2024-01-06T19:49:49.402Z,91620.78
2024-01-06T19:52:18.438Z,91625.31
2024-01-06T19:54:47.183Z,91619.69
2024-01-06T19:57:17.611Z,91620.78
2024-01-06T19:59:48.773Z,91622.47
2024-01-06T20:02:17.313Z,91625.75
2024-01-06T20:04:46.205Z,91629.59
2024-01-06T20:07:16.298Z,91615.19
2024-01-06T20:09:47.464Z,91626.28
2024-01-06T20:12:16.974Z,91622.59
2024-01-06T20:14:45.467Z,91616.59
2024-01-06T20:17:14.081Z,91617.09
2024-01-06T20:19:43.947Z,91619.78
2024-01-06T20:22:12.595Z,91615.56
2024-01-06T20:24:43.328Z,91612.06
2024-01-06T20:27:12.083Z,91611.47
2024-01-06T20:29:40.542Z,91607.28
2024-01-06T20:32:09.468Z,91605.06
2024-01-06T20:34:39.579Z,91613.34
2024-01-06T20:37:08.134Z,91608.84
2024-01-06T20:39:36.605Z,91615.16
2024-01-06T20:42:07.268Z,91606.50
2024-01-06T20:44:37.361Z,91606.47
2024-01-06T20:47:06.391Z,91606.47
2024-01-06T20:49:35.109Z,91609.09
2024-01-06T20:52:04.244Z,91605.91
2024-01-06T20:54:33.172Z,91601.09
2024-01-06T20:57:01.694Z,91605.81
2024-01-06T20:59:32.877Z,91601.00
2024-01-06T21:02:03.019Z,91605.13
2024-01-06T21:04:31.470Z,91606.56
2024-01-06T21:07:00.029Z,91601.28
2024-01-06T21:09:28.816Z,91602.13
2024-01-06T21:11:57.457Z,91607.50
2024-01-06T21:14:26.019Z,91606.59
2024-01-06T21:16:56.483Z,91607.91
2024-01-06T21:19:27.543Z,91609.44
2024-01-06T21:21:57.916Z,91613.78
2024-01-06T21:24:26.512Z,91610.94
2024-01-06T21:26:55.141Z,91610.53
2024-01-06T21:29:24.074Z,91610.59
2024-01-06T21:31:52.660Z,91608.31
2024-01-06T21:34:25.475Z,91605.13
2024-01-06T21:36:54.567Z,91609.22
2024-01-06T21:39:23.414Z,91606.63
2024-01-06T21:41:52.020Z,91612.78
2024-01-06T21:44:22.440Z,91610.44
2024-01-06T21:46:52.477Z,91612.19
2024-01-06T21:49:22.450Z,91617.22
2024-01-06T21:51:52.690Z,91610.22
2024-01-06T21:54:21.696Z,91607.00
2024-01-06T21:56:50.520Z,91615.69
2024-01-06T21:59:18.990Z,91614.72
2024-01-06T22:01:48.059Z,91610.00
2024-01-06T22:04:16.662Z,91605.47
2024-01-06T22:06:46.549Z,91609.34
2024-01-06T22:09:17.348Z,91605.69
2024-01-06T22:11:47.124Z,91609.50
2024-01-06T22:14:16.067Z,91608.69
2024-01-06T22:16:44.734Z,91611.00
2024-01-06T22:19:13.701Z,91618.16
2024-01-06T22:21:45.449Z,91615.22
2024-01-06T22:24:17.028Z,91619.06
2024-01-06T22:26:46.350Z,91619.44
2024-01-06T22:29:14.870Z,91620.88
2024-01-06T22:31:46.591Z,91617.66
2024-01-06T22:34:15.349Z,91618.22
2024-01-06T22:36:44.314Z,91612.47
2024-01-06T22:39:12.856Z,91619.34
2024-01-06T22:41:44.075Z,91617.81
2024-01-06T22:44:12.622Z,91619.34
2024-01-06T22:46:41.120Z,91618.31
2024-01-06T22:49:11.155Z,91622.69
2024-01-06T22:51:39.752Z,91626.47
2024-01-06T22:54:11.327Z,91627.50
2024-01-06T22:56:40.315Z,91625.94
2024-01-06T22:59:10.387Z,91627.50
2024-01-06T23:01:39.052Z,91619.63
2024-01-06T23:04:07.922Z,91625.25
2024-01-06T23:06:37.181Z,91624.59
2024-01-06T23:09:08.322Z,91627.06
2024-01-06T23:11:36.992Z,91622.22
2024-01-06T23:14:06.217Z,91628.19
2024-01-06T23:16:36.141Z,91631.09
2024-01-06T23:19:04.745Z,91627.31
2024-01-06T23:21:33.557Z,91623.69
2024-01-06T23:24:02.122Z,91629.91
2024-01-06T23:26:30.862Z,91631.31
2024-01-06T23:28:59.317Z,91633.03
2024-01-06T23:31:27.911Z,91633.72
2024-01-06T23:33:58.168Z,91638.91
2024-01-06T23:36:26.713Z,91643.47
2024-01-06T23:38:55.250Z,91633.13
2024-01-06T23:41:23.706Z,91642.06
2024-01-06T23:43:52.156Z,91636.78
2024-01-06T23:46:25.344Z,91641.81
2024-01-06T23:48:54.705Z,91632.25
2024-01-06T23:51:25.007Z,91637.41
2024-01-06T23:53:54.056Z,91637.06
2024-01-06T23:56:22.736Z,91642.47
2024-01-06T23:58:51.404Z,91643.28
